Latest Coastal Weather Observations for Kalumburu

IDW60701

Issued at 10:25 pm WST Thursday 2 October 2014 (issued every 10 minutes, with the page automatically refreshed every 10 minutes)

About coastal observations | Map of coastal stations | Coastal observations for WA | Marine services | Other Formats
Station Details ID: 001019 Name: KALUMBURU Lat: -14.30 Lon: 126.65 Height: 23.0 m
Data from the previous 72 hours. | See also: Recent months at Kalumburu
Date/Time
WST
Temp

°C
Wind Pressure Rain
since 9am
mm
Weather Cloud Vis
km
Sea
Height
m
Swell
Dir
 
Speed
knots
Gust
knots
hPa Trend Height
m
Period
s
Dir
02/10:00pm 26.0 SW 1 4 1012.1 - 0.0 - - - - - - -
02/09:30pm 27.1 W 3 5 1012.5 - 0.0 - - - - - - -
02/09:00pm 27.0 W 3 5 1012.7 - 0.0 - - - - - - -
02/08:30pm 27.1 W 3 4 1012.8 - 0.0 - - - - - - -
02/08:00pm 27.8 NW 5 7 1012.5 - 0.0 - - - - - - -
02/07:30pm 28.3 WNW 5 7 1012.4 - 0.0 - - - - - - -
02/07:00pm 28.4 WNW 6 9 1012.2 - 0.0 - - - - - - -
02/06:30pm 28.9 WNW 6 9 1011.8 - 0.0 - - - - - - -
02/06:00pm 29.7 WNW 6 10 1011.3 - 0.0 - - - - - - -
02/05:30pm 30.3 NNW 6 10 1010.7 - 0.0 - - - - - - -
02/05:00pm 31.0 NNW 8 11 1010.2 - 0.0 - - - - - - -
02/04:30pm 31.0 NNW 9 14 1009.6 - 0.0 - - - - - - -
02/04:00pm 31.7 N 10 16 1009.4 - 0.0 - - - - - - -
02/03:30pm 32.3 N 13 19 1009.1 - 0.0 - - - - - - -
02/03:00pm 32.4 N 13 21 1008.9 - 0.0 - - - - - - -
02/02:30pm 32.9 N 13 20 1008.9 - 0.0 - - - - - - -
02/02:00pm 34.2 N 14 19 1008.8 - 0.0 - - - - - - -
02/01:30pm 33.8 N 12 18 1009.0 - 0.0 - - - - - - -
02/01:00pm 34.1 NNW 9 13 1009.6 - 0.0 - - - - - - -
02/12:30pm 32.5 N 12 17 1010.1 - 0.0 - - - - - - -
02/12:00pm 34.2 N 10 16 1010.7 - 0.0 - - - - - - -
02/11:30am 33.4 N 10 16 1011.3 - 0.0 - - - - - - -
02/11:00am 32.9 NNW 9 14 1011.7 - 0.0 - - - - - - -
02/10:30am 32.9 NNW 9 15 1012.5 - 0.0 - - - - - - -
02/10:00am 32.4 N 7 12 1012.9 - 0.0 - - - - - - -
02/09:30am 32.0 NNE 4 8 1013.4 - 0.0 - - - - - - -
02/09:00am 31.9 NNW 3 6 1013.9 - 0.0 - - - - - - -
02/08:30am 30.0 NW 5 8 1014.2 - 0.0 - - - - - - -
02/08:00am 29.7 NNW 6 9 1014.4 - 0.0 - - - - - - -
02/07:30am 29.0 NNW 5 8 1014.3 - 0.0 - - - - - - -
02/07:00am 28.5 N 6 9 1014.0 - 0.0 - - - - - - -
02/06:30am 27.6 N 4 7 1013.7 - 0.0 - - - - - - -
02/06:00am 25.8 NNE 4 6 1013.3 - 0.0 - - - - - - -
02/05:30am 24.9 E 3 5 1013.0 - 0.0 - - - - - - -
02/05:00am 25.3 NNE 4 6 1012.4 - 0.0 - - - - - - -
02/04:30am 25.9 NE 5 7 1012.0 - 0.0 - - - - - - -
02/04:00am 26.2 WNW 4 5 1010.8 - 0.0 - - - - - - -
02/03:30am 26.1 W 1 4 1010.7 - 0.0 - - - - - - -
02/03:00am 26.4 WSW 3 5 1010.5 - 0.0 - - - - - - -
02/02:30am 26.5 WSW 4 7 1010.6 - 0.0 - - - - - - -
02/02:00am 26.6 W 5 7 1010.6 - 0.0 - - - - - - -
02/01:30am 26.6 WSW 4 7 1010.8 - 0.0 - - - - - - -
02/01:00am 26.5 SW 3 6 1011.1 - 0.0 - - - - - - -
02/12:30am 26.5 SSW 4 6 1011.2 - 0.0 - - - - - - -
02/12:00am 26.3 SW 3 9 1011.4 - 0.0 - - - - - - -
 
Date/Time
WST
Temp

°C
Wind Pressure Rain
since 9am
mm
Weather Cloud Vis
km
Sea
Height
m
Swell
Dir
 
Speed
knots
Gust
knots
hPa Trend Height
m
Period
s
Dir
01/11:30pm 26.2 SW 4 7 1011.8 - 0.0 - - - - - - -
01/11:00pm 26.3 WSW 1 4 1012.3 - 0.0 - - - - - - -
01/10:30pm 26.3 WSW 3 4 1012.6 - 0.0 - - - - - - -
01/10:00pm 26.7 W 4 6 1012.8 - 0.0 - - - - - - -
01/09:30pm 27.0 WNW 5 7 1012.8 - 0.0 - - - - - - -
01/09:00pm 26.9 WNW 4 6 1013.1 - 0.0 - - - - - - -
01/08:30pm 26.9 NW 4 5 1013.1 - 0.0 - - - - - - -
01/08:00pm 27.1 NW 5 7 1012.9 - 0.0 - - - - - - -
01/07:30pm 27.4 NNW 6 9 1012.7 - 0.0 - - - - - - -
01/07:00pm 27.8 NNW 6 9 1012.4 - 0.0 - - - - - - -
01/06:30pm 28.2 NNW 6 9 1011.9 - 0.0 - - - - - - -
01/06:00pm 28.5 N 7 10 1011.4 - 0.0 - - - - - - -
01/05:30pm 28.9 N 9 14 1010.9 - 0.0 - - - - - - -
01/05:00pm 29.4 N 9 13 1010.4 - 0.0 - - - - - - -
01/04:30pm 29.9 N 11 16 1010.1 - 0.0 - - - - - - -
01/04:00pm 30.5 N 12 17 1009.9 - 0.0 - - - - - - -
01/03:30pm 31.3 N 12 17 1009.8 - 0.0 - - - - - - -
01/03:00pm 32.1 N 13 19 1009.9 - 0.0 - - - - - - -
01/02:30pm 33.0 N 10 15 1009.9 - 0.0 - - - - - - -
01/02:00pm 32.3 NNW 11 16 1010.1 - 0.0 - - - - - - -
01/01:30pm 33.5 NNW 9 15 1010.5 - 0.0 - - - - - - -
01/01:00pm 33.4 N 9 14 1010.9 - 0.0 - - - - - - -
01/12:30pm 33.2 N 8 11 1011.6 - 0.0 - - - - - - -
01/12:00pm 32.8 N 7 11 1012.1 - 0.0 - - - - - - -
01/11:30am 32.6 NW 7 11 1012.6 - 0.0 - - - - - - -
01/11:00am 32.1 NNW 10 16 1013.3 - 0.0 - - - - - - -
01/10:30am 32.0 NNW 8 13 1013.9 - 0.0 - - - - - - -
01/10:00am 31.5 N 7 11 1014.5 - 0.0 - - - - - - -
01/09:30am 31.5 NNW 7 11 1015.0 - 0.0 - - - - - - -
01/09:00am 29.6 N 6 11 1015.2 - 0.0 - - - - - - -
01/08:30am 28.4 WNW 3 6 1015.3 - 0.0 - - - - - - -
01/08:00am 28.2 WNW 5 7 1014.7 - 0.0 - - - - - - -
01/07:30am 27.4 WNW 3 5 1014.6 - 0.0 - - - - - - -
01/07:00am 26.4 NNW 3 5 1014.5 - 0.0 - - - - - - -
01/06:30am 24.4 ENE 4 6 1014.4 - 0.0 - - - - - - -
01/06:00am 21.5 NE 1 4 1013.6 - 0.0 - - - - - - -
01/05:30am 20.9 S 2 4 1013.0 - 0.0 - - - - - - -
01/05:00am 20.7 CALM 0 0 1012.8 - 0.0 - - - - - - -
01/04:30am 21.0 NE 1 5 1012.3 - 0.0 - - - - - - -
01/04:00am 20.3 CALM 0 0 1012.0 - 0.0 - - - - - - -
01/03:30am 20.6 CALM 0 0 1011.7 - 0.0 - - - - - - -
01/03:00am 20.7 CALM 0 0 1011.6 - 0.0 - - - - - - -
01/02:30am 20.6 CALM 0 0 1011.6 - 0.0 - - - - - - -
01/02:00am 21.1 CALM 0 0 1011.6 - 0.0 - - - - - - -
01/01:30am 21.3 CALM 0 0 1011.7 - 0.0 - - - - - - -
01/01:00am 21.4 CALM 0 0 1011.9 - 0.0 - - - - - - -
01/12:30am 21.6 CALM 0 0 1012.1 - 0.0 - - - - - - -
01/12:00am 21.9 CALM 0 0 1012.2 - 0.0 - - - - - - -
 
Date/Time
WST
Temp

°C
Wind Pressure Rain
since 9am
mm
Weather Cloud Vis
km
Sea
Height
m
Swell
Dir
 
Speed
knots
Gust
knots
hPa Trend Height
m
Period
s
Dir
30/11:30pm 22.4 CALM 0 0 1012.5 - 0.0 - - - - - - -
30/11:00pm 22.9 CALM 0 3 1012.8 - 0.0 - - - - - - -
30/10:30pm 24.6 NW 3 4 1012.9 - 0.0 - - - - - - -
30/10:00pm 24.8 WNW 3 4 1013.2 - 0.0 - - - - - - -
30/09:30pm 25.5 W 3 5 1013.3 - 0.0 - - - - - - -
30/09:00pm 26.0 NNW 4 6 1013.4 - 0.0 - - - - - - -
30/08:30pm 26.4 NNW 5 7 1013.5 - 0.0 - - - - - - -
30/08:00pm 26.6 NNW 4 6 1013.3 - 0.0 - - - - - - -
30/07:30pm 26.9 N 7 10 1013.0 - 0.0 - - - - - - -
30/07:00pm 27.0 N 6 10 1012.6 - 0.0 - - - - - - -
30/06:30pm 27.2 N 8 13 1012.3 - 0.0 - - - - - - -
30/06:00pm 27.3 N 8 13 1012.0 - 0.0 - - - - - - -
30/05:30pm 27.4 N 10 15 1011.5 - 0.0 - - - - - - -
30/05:00pm 27.9 NNW 10 14 1011.1 - 0.0 - - - - - - -
30/04:30pm 28.9 NNW 10 15 1010.6 - 0.0 - - - - - - -
30/04:00pm 29.7 N 11 16 1010.1 - 0.0 - - - - - - -
30/03:30pm 30.6 N 11 17 1010.0 - 0.0 - - - - - - -
30/03:00pm 31.4 N 13 19 1010.1 - 0.0 - - - - - - -
30/02:30pm 31.9 N 13 18 1010.3 - 0.0 - - - - - - -
30/02:00pm 31.7 NNW 13 18 1010.5 - 0.0 - - - - - - -
30/01:30pm 32.7 N 13 19 1010.8 - 0.0 - - - - - - -
30/01:00pm 33.0 N 13 19 1011.2 - 0.0 - - - - - - -
30/12:30pm 33.3 N 12 16 1011.5 - 0.0 - - - - - - -
30/12:00pm 32.6 N 12 15 1011.9 - 0.0 - - - - - - -
30/11:30am 32.5 N 11 16 1012.3 - 0.0 - - - - - - -
30/11:00am 31.6 N 11 17 1012.5 - 0.0 - - - - - - -
30/10:30am 32.6 N 9 13 1013.0 - 0.0 - - - - - - -
30/10:00am 31.6 N 7 12 1013.4 - 0.0 - - - - - - -
30/09:30am 31.2 N 8 11 1013.3 - 0.0 - - - - - - -
30/09:00am 30.1 NNW 5 8 1013.7 - - - - - - - - -
30/08:30am 28.8 NNW 5 7 1013.9 - - - - - - - - -
30/08:00am 28.2 NW 5 7 1014.1 - - - - - - - - -
30/07:30am 28.0 NW 4 7 1014.1 - - - - - - - - -
30/07:00am 25.4 CALM 0 0 1013.6 - - - - - - - - -
30/06:30am 23.3 CALM 0 0 1013.3 - - - - - - - - -
30/06:00am 21.3 CALM 0 0 1013.0 - - - - - - - - -
30/05:30am 20.3 CALM 0 0 1012.7 - - - - - - - - -
30/05:00am 20.2 CALM 0 0 1012.4 - - - - - - - - -
30/04:30am 20.7 CALM 0 0 1012.1 - - - - - - - - -
30/04:00am 20.3 CALM 0 0 1011.7 - - - - - - - - -
30/03:30am 20.7 CALM 0 0 1011.4 - - - - - - - - -
30/03:00am 20.8 CALM 0 0 1011.3 - 0.0 - - - - - - -
30/02:30am 21.6 CALM 0 0 1011.1 - - - - - - - - -
30/02:00am 21.0 CALM 0 0 1011.2 - - - - - - - - -
30/01:30am 21.8 CALM 0 0 1011.3 - - - - - - - - -
30/01:00am 21.5 CALM 0 0 1011.5 - - - - - - - - -
30/12:30am 22.1 CALM 0 0 1011.5 - - - - - - - - -
30/12:00am 22.4 CALM 0 0 1011.8 - - - - - - - - -
 
Date/Time
WST
Temp

°C
Wind Pressure Rain
since 9am
mm
Weather Cloud Vis
km
Sea
Height
m
Swell
Dir
 
Speed
knots
Gust
knots
hPa Trend Height
m
Period
s
Dir
29/11:30pm 22.4 CALM 0 0 1012.1 - - - - - - - - -
29/11:00pm 23.5 CALM 0 0 1012.4 - - - - - - - - -
29/10:30pm 24.1 CALM 0 4 1012.6 - - - - - - - - -

Other Formats:

Comma delimited format used in spreadsheet applications
http://www.bom.gov.au/fwo/IDW60701/IDW60701.94100.axf

JavaScript Object Notation format (JSON) in row-major order
http://www.bom.gov.au/fwo/IDW60701/IDW60701.94100.json